Time,TemperatureF,DewpointF,PressureIn,WindDirection,WindDirectionDegrees,WindSpeedMPH,WindSpeedGustMPH,Humidity,HourlyPrecipIn,Conditions,Clouds,dailyrainin,SoftwareType,DateUTC
2013-01-18 00:00:00,18.1,15.7,30.13,NNE,32,3.0,3.0,90,0.00,,,0.00,VWS V14.01,2013-01-18 05:00:00,
2013-01-18 00:01:00,18.1,15.7,30.13,NNW,334,0.0,4.0,90,0.00,,,0.00,VWS V14.01,2013-01-18 05:01:00,
2013-01-18 00:04:00,18.1,15.7,30.14,North,9,1.0,1.0,90,0.00,,,0.00,VWS V14.01,2013-01-18 05:04:00,
2013-01-18 00:05:00,18.0,15.6,30.14,NNW,339,1.0,1.0,90,0.00,,,0.00,VWS V14.01,2013-01-18 05:05:00,
2013-01-18 00:10:00,17.8,15.1,30.14,North,353,4.0,5.0,89,0.00,,,0.00,VWS V14.01,2013-01-18 05:10:00,
2013-01-18 00:15:00,17.7,15.0,30.15,North,5,1.0,5.0,89,0.00,,,0.00,VWS V14.01,2013-01-18 05:15:00,
2013-01-18 00:20:00,17.5,14.8,30.15,ENE,60,0.0,5.0,89,0.00,,,0.00,VWS V14.01,2013-01-18 05:20:00,
2013-01-18 00:25:00,17.5,14.8,30.15,North,9,3.0,5.0,89,0.00,,,0.00,VWS V14.01,2013-01-18 05:25:00,
2013-01-18 00:30:00,17.4,14.7,30.16,WNW,288,3.0,5.0,89,0.00,,,0.00,VWS V14.01,2013-01-18 05:30:00,
2013-01-18 00:35:00,17.2,14.5,30.17,NW,313,3.0,4.0,89,0.00,,,0.00,VWS V14.01,2013-01-18 05:35:00,
2013-01-18 00:41:00,17.0,14.3,30.16,WNW,301,0.0,6.0,89,0.00,,,0.00,VWS V14.01,2013-01-18 05:41:00,
2013-01-18 00:46:00,16.9,14.2,30.16,North,359,1.0,6.0,89,0.00,,,0.00,VWS V14.01,2013-01-18 05:46:00,
2013-01-18 00:51:00,16.8,14.1,30.16,WNW,301,1.0,6.0,89,0.00,,,0.00,VWS V14.01,2013-01-18 05:51:00,
2013-01-18 00:56:00,16.8,14.1,30.16,NE,53,0.0,6.0,89,0.00,,,0.00,VWS V14.01,2013-01-18 05:56:00,
2013-01-18 01:00:00,16.2,13.8,30.19,NNW,332,1.0,3.0,90,0.00,,OVC,0.00,VWS V14.01,2013-01-18 06:00:00,
2013-01-18 01:01:00,16.7,14.0,30.16,NW,323,2.0,6.0,89,0.00,,,0.00,VWS V14.01,2013-01-18 06:01:00,
2013-01-18 01:06:00,16.5,13.8,30.16,NNE,29,2.0,2.0,89,0.00,,,0.00,VWS V14.01,2013-01-18 06:06:00,
2013-01-18 01:12:00,16.3,13.6,30.16,NNE,15,0.0,3.0,89,0.00,,,0.00,VWS V14.01,2013-01-18 06:12:00,
2013-01-18 01:17:00,16.1,13.4,30.17,NNW,336,0.0,3.0,89,0.00,,,0.00,VWS V14.01,2013-01-18 06:17:00,
2013-01-18 01:22:00,16.1,13.7,30.17,NNW,337,0.0,3.0,90,0.00,,,0.00,VWS V14.01,2013-01-18 06:22:00,
2013-01-18 01:27:00,16.1,13.7,30.18,NW,326,0.0,3.0,90,0.00,,,0.00,VWS V14.01,2013-01-18 06:27:00,
2013-01-18 01:30:00,16.1,13.7,30.21,NW,312,0.0,3.0,90,0.00,,OVC,0.00,VWS V14.01,2013-01-18 06:30:00,
2013-01-18 01:32:00,16.1,13.7,30.18,North,349,1.0,3.0,90,0.00,,,0.00,VWS V14.01,2013-01-18 06:32:00,
2013-01-18 01:37:00,16.0,13.6,30.18,NNW,337,1.0,3.0,90,0.00,,,0.00,VWS V14.01,2013-01-18 06:37:00,
2013-01-18 01:42:00,16.1,13.4,30.18,NW,322,0.0,3.0,89,0.00,,,0.00,VWS V14.01,2013-01-18 06:42:00,
2013-01-18 01:47:00,16.0,13.6,30.18,NNW,337,1.0,3.0,90,0.00,,,0.00,VWS V14.01,2013-01-18 06:47:00,
2013-01-18 01:52:00,16.0,13.6,30.18,NNW,331,1.0,3.0,90,0.00,,,0.00,VWS V14.01,2013-01-18 06:52:00,
2013-01-18 01:58:00,16.1,13.7,30.18,NNW,329,1.0,3.0,90,0.00,,,0.00,VWS V14.01,2013-01-18 06:58:00,
2013-01-18 02:00:00,16.3,13.9,30.24,NNW,331,1.0,2.0,90,0.00,,OVC,0.00,VWS V14.01,2013-01-18 07:00:00,
2013-01-18 02:03:00,16.1,13.7,30.19,NW,321,1.0,1.0,90,0.00,,OVC060,0.00,VWS V14.01,2013-01-18 07:03:00,
2013-01-18 02:08:00,16.1,13.7,30.19,West,266,1.0,3.0,90,0.00,,OVC060,0.00,VWS V14.01,2013-01-18 07:08:00,
2013-01-18 02:13:00,16.1,13.7,30.19,NNW,328,1.0,3.0,90,0.00,,OVC060,0.00,VWS V14.01,2013-01-18 07:13:00,
2013-01-18 02:18:00,16.1,13.7,30.20,NNW,333,1.0,3.0,90,0.00,,OVC060,0.00,VWS V14.01,2013-01-18 07:18:00,
2013-01-18 02:23:00,16.1,13.7,30.21,NW,320,1.0,3.0,90,0.00,,OVC060,0.00,VWS V14.01,2013-01-18 07:23:00,
2013-01-18 02:29:00,16.1,13.7,30.21,NNW,337,0.0,3.0,90,0.00,,OVC060,0.00,VWS V14.01,2013-01-18 07:29:00,
2013-01-18 02:30:00,16.0,13.8,30.25,North,354,0.0,3.0,91,0.00,,OVC,0.00,VWS V14.01,2013-01-18 07:30:00,
2013-01-18 02:34:00,16.1,13.7,30.21,NNW,334,0.0,0.0,90,0.00,,OVC060,0.00,VWS V14.01,2013-01-18 07:34:00,
2013-01-18 02:39:00,16.2,14.0,30.22,NNW,328,0.0,0.0,91,0.00,,OVC060,0.00,VWS V14.01,2013-01-18 07:39:00,
2013-01-18 02:44:00,16.2,14.0,30.22,NW,323,0.0,2.0,91,0.00,,OVC060,0.00,VWS V14.01,2013-01-18 07:44:00,
2013-01-18 02:49:00,16.2,14.0,30.23,NNW,332,0.0,2.0,91,0.00,,OVC065,0.00,VWS V14.01,2013-01-18 07:49:00,
2013-01-18 02:54:00,16.3,13.9,30.24,NNW,331,0.0,2.0,90,0.00,,OVC065,0.00,VWS V14.01,2013-01-18 07:54:00,
2013-01-18 02:59:00,16.3,13.9,30.24,NW,312,0.0,2.0,90,0.00,,OVC065,0.00,VWS V14.01,2013-01-18 07:59:00,
2013-01-18 03:00:00,15.8,13.6,30.25,SW,214,0.0,1.0,91,0.00,,OVC,0.00,VWS V14.01,2013-01-18 08:00:00,
2013-01-18 03:05:00,16.2,13.8,30.24,North,351,1.0,2.0,90,0.00,,OVC065,0.00,VWS V14.01,2013-01-18 08:05:00,
2013-01-18 03:10:00,16.2,13.8,30.24,NW,325,1.0,2.0,90,0.00,,OVC065,0.00,VWS V14.01,2013-01-18 08:10:00,
2013-01-18 03:15:00,16.2,13.8,30.24,North,8,1.0,3.0,90,0.00,,OVC065,0.00,VWS V14.01,2013-01-18 08:15:00,
2013-01-18 03:20:00,16.2,14.0,30.24,NW,325,0.0,3.0,91,0.00,,OVC065,0.00,VWS V14.01,2013-01-18 08:20:00,
2013-01-18 03:25:00,16.1,13.7,30.24,North,8,0.0,3.0,90,0.00,,OVC065,0.00,VWS V14.01,2013-01-18 08:25:00,
2013-01-18 03:30:00,16.1,13.9,30.24,North,355,0.0,3.0,91,0.00,,OVC065,0.00,VWS V14.01,2013-01-18 08:30:00,
2013-01-18 03:36:00,16.0,13.6,30.24,NNW,340,0.0,1.0,90,0.00,,OVC065,0.00,VWS V14.01,2013-01-18 08:36:00,
2013-01-18 03:41:00,15.9,13.5,30.24,NNW,340,0.0,1.0,90,0.00,,OVC065,0.00,VWS V14.01,2013-01-18 08:41:00,
2013-01-18 03:46:00,15.8,13.4,30.24,NNW,340,0.0,1.0,90,0.00,,,0.00,VWS V14.01,2013-01-18 08:46:00,
2013-01-18 03:51:00,15.7,13.3,30.25,NNW,340,0.0,1.0,90,0.00,,,0.00,VWS V14.01,2013-01-18 08:51:00,
2013-01-18 03:56:00,15.7,13.5,30.25,West,281,0.0,1.0,91,0.00,,,0.00,VWS V14.01,2013-01-18 08:56:00,
2013-01-18 04:00:00,14.3,12.2,30.28,NNW,331,0.0,1.0,91,0.00,,OVC,0.00,VWS V14.01,2013-01-18 09:00:00,
2013-01-18 04:01:00,15.8,13.6,30.25,SW,214,0.0,1.0,91,0.00,,,0.00,VWS V14.01,2013-01-18 09:01:00,
2013-01-18 04:07:00,15.8,13.6,30.25,SW,214,0.0,0.0,91,0.00,,,0.00,VWS V14.01,2013-01-18 09:07:00,
2013-01-18 04:12:00,15.8,13.6,30.25,West,269,2.0,2.0,91,0.00,,,0.00,VWS V14.01,2013-01-18 09:12:00,
2013-01-18 04:17:00,15.7,13.3,30.25,NNW,345,0.0,2.0,90,0.00,,,0.00,VWS V14.01,2013-01-18 09:17:00,
2013-01-18 04:22:00,15.6,13.2,30.25,NNW,337,0.0,2.0,90,0.00,,,0.00,VWS V14.01,2013-01-18 09:22:00,
2013-01-18 04:27:00,15.5,13.1,30.26,NW,315,0.0,2.0,90,0.00,,,0.00,VWS V14.01,2013-01-18 09:27:00,
2013-01-18 04:30:00,15.4,13.2,30.29,NW,326,1.0,1.0,91,0.00,,OVC,0.00,VWS V14.01,2013-01-18 09:30:00,
2013-01-18 04:32:00,15.2,12.8,30.26,NW,315,0.0,2.0,90,0.00,,,0.00,VWS V14.01,2013-01-18 09:32:00,
2013-01-18 04:37:00,15.0,12.6,30.26,NW,314,0.0,0.0,90,0.00,,,0.00,VWS V14.01,2013-01-18 09:37:00,
2013-01-18 04:42:00,14.6,12.2,30.26,NW,315,0.0,0.0,90,0.00,,,0.00,VWS V14.01,2013-01-18 09:42:00,
2013-01-18 04:48:00,14.2,11.6,30.27,NW,316,0.0,0.0,89,0.00,,OVC070,0.00,VWS V14.01,2013-01-18 09:48:00,
2013-01-18 04:53:00,14.0,11.6,30.27,North,4,0.0,1.0,90,0.00,,OVC070,0.00,VWS V14.01,2013-01-18 09:53:00,
2013-01-18 04:58:00,14.1,11.7,30.27,North,1,0.0,1.0,90,0.00,,OVC070,0.00,VWS V14.01,2013-01-18 09:58:00,
2013-01-18 05:00:00,16.0,13.8,30.31,WNW,298,0.0,2.0,91,0.00,,OVC,0.00,VWS V14.01,2013-01-18 10:00:00,
2013-01-18 05:03:00,14.3,12.2,30.28,NNW,332,0.0,0.0,91,0.00,,OVC070,0.00,VWS V14.01,2013-01-18 10:03:00,
2013-01-18 05:08:00,14.4,12.3,30.28,NNW,331,0.0,0.0,91,0.00,,OVC070,0.00,VWS V14.01,2013-01-18 10:08:00,
2013-01-18 05:13:00,14.6,12.5,30.28,NNW,328,0.0,1.0,91,0.00,,OVC070,0.00,VWS V14.01,2013-01-18 10:13:00,
2013-01-18 05:18:00,14.9,12.8,30.29,NW,309,0.0,1.0,91,0.00,,OVC070,0.00,VWS V14.01,2013-01-18 10:18:00,
2013-01-18 05:23:00,15.1,12.9,30.29,NNE,16,0.0,1.0,91,0.00,,OVC070,0.00,VWS V14.01,2013-01-18 10:23:00,
2013-01-18 05:29:00,15.3,13.1,30.29,NNE,15,0.0,1.0,91,0.00,,OVC070,0.00,VWS V14.01,2013-01-18 10:29:00,
2013-01-18 05:30:00,15.7,13.3,30.33,West,260,0.0,1.0,90,0.00,,OVC,0.00,VWS V14.01,2013-01-18 10:30:00,
2013-01-18 05:34:00,15.4,13.2,30.29,North,360,0.0,1.0,91,0.00,,OVC070,0.00,VWS V14.01,2013-01-18 10:34:00,
2013-01-18 05:39:00,15.6,13.4,30.30,NW,325,0.0,1.0,91,0.00,,OVC070,0.00,VWS V14.01,2013-01-18 10:39:00,
2013-01-18 05:44:00,15.7,13.5,30.30,WNW,302,0.0,1.0,91,0.00,,OVC070,0.00,VWS V14.01,2013-01-18 10:44:00,
2013-01-18 05:49:00,15.8,13.6,30.31,WNW,297,0.0,1.0,91,0.00,,BKN048,0.00,VWS V14.01,2013-01-18 10:49:00,
2013-01-18 05:54:00,15.9,13.7,30.31,WNW,294,1.0,2.0,91,0.00,,BKN048,0.00,VWS V14.01,2013-01-18 10:54:00,
2013-01-18 06:00:00,16.0,13.8,30.31,NNW,340,0.0,2.0,91,0.00,,BKN048,0.00,VWS V14.01,2013-01-18 11:00:00,
2013-01-18 06:05:00,16.0,13.8,30.31,WNW,297,0.0,0.0,91,0.00,,BKN048,0.00,VWS V14.01,2013-01-18 11:05:00,
2013-01-18 06:10:00,16.0,13.6,30.32,NW,311,0.0,1.0,90,0.00,,BKN048,0.00,VWS V14.01,2013-01-18 11:10:00,
2013-01-18 06:15:00,15.9,13.5,30.32,NW,311,0.0,1.0,90,0.00,,BKN048,0.00,VWS V14.01,2013-01-18 11:15:00,
2013-01-18 06:20:00,15.9,13.5,30.32,NW,311,0.0,1.0,90,0.00,,BKN048,0.00,VWS V14.01,2013-01-18 11:20:00,
2013-01-18 06:25:00,15.9,13.5,30.32,West,260,0.0,1.0,90,0.00,,BKN048,0.00,VWS V14.01,2013-01-18 11:25:00,
2013-01-18 06:30:00,15.8,13.4,30.33,West,264,0.0,1.0,90,0.00,,BKN048,0.00,VWS V14.01,2013-01-18 11:30:00,
2013-01-18 06:36:00,15.5,12.8,30.33,West,260,0.0,0.0,89,0.00,,BKN048,0.00,VWS V14.01,2013-01-18 11:36:00,
2013-01-18 06:41:00,15.2,12.6,30.33,West,259,0.0,0.0,89,0.00,,BKN048,0.00,VWS V14.01,2013-01-18 11:41:00,
2013-01-18 06:46:00,14.9,12.2,30.34,West,263,0.0,0.0,89,0.00,,,0.00,VWS V14.01,2013-01-18 11:46:00,
2013-01-18 06:51:00,14.6,11.7,30.34,West,266,0.0,0.0,88,0.00,,,0.00,VWS V14.01,2013-01-18 11:51:00,
2013-01-18 06:56:00,14.3,11.7,30.34,West,269,0.0,0.0,89,0.00,,,0.00,VWS V14.01,2013-01-18 11:56:00,
2013-01-18 07:00:00,14.3,11.7,30.37,West,269,0.0,2.0,89,0.00,,OVC,0.00,VWS V14.01,2013-01-18 12:00:00,
2013-01-18 07:01:00,14.1,11.2,30.34,West,267,0.0,0.0,88,0.00,,,0.00,VWS V14.01,2013-01-18 12:01:00,
2013-01-18 07:06:00,13.9,11.0,30.34,West,266,0.0,0.0,88,0.00,,,0.00,VWS V14.01,2013-01-18 12:06:00,
2013-01-18 07:11:00,13.3,10.4,30.34,West,271,0.0,0.0,88,0.00,,,0.00,VWS V14.01,2013-01-18 12:11:00,
2013-01-18 07:17:00,13.6,11.2,30.35,West,263,0.0,0.0,90,0.00,,,0.00,VWS V14.01,2013-01-18 12:17:00,
2013-01-18 07:22:00,13.7,11.1,30.35,West,265,0.0,0.0,89,0.00,,,0.00,VWS V14.01,2013-01-18 12:22:00,
2013-01-18 07:27:00,13.5,10.9,30.35,West,266,0.0,0.0,89,0.00,,,0.00,VWS V14.01,2013-01-18 12:27:00,
2013-01-18 07:30:00,16.1,12.7,30.37,WSW,255,1.0,4.0,86,0.00,,OVC,0.00,VWS V14.01,2013-01-18 12:30:00,
2013-01-18 07:32:00,13.5,10.9,30.35,West,270,0.0,0.0,89,0.00,,,0.00,VWS V14.01,2013-01-18 12:32:00,
2013-01-18 07:37:00,13.7,11.1,30.35,West,270,0.0,1.0,89,0.00,,,0.00,VWS V14.01,2013-01-18 12:37:00,
2013-01-18 07:42:00,13.7,11.1,30.35,WSW,255,1.0,1.0,89,0.00,,,0.00,VWS V14.01,2013-01-18 12:42:00,
2013-01-18 07:55:00,13.7,11.1,30.36,West,260,1.0,1.0,89,0.00,,,0.00,VWS V14.01,2013-01-18 12:55:00,
2013-01-18 08:00:00,14.1,11.5,30.37,West,271,1.0,2.0,89,0.00,,,0.00,VWS V14.01,2013-01-18 13:00:00,
2013-01-18 08:05:00,14.4,11.8,30.37,West,259,1.0,1.0,89,0.00,,,0.00,VWS V14.01,2013-01-18 13:05:00,
2013-01-18 08:10:00,14.7,12.1,30.37,WSW,257,1.0,2.0,89,0.00,,,0.00,VWS V14.01,2013-01-18 13:10:00,
2013-01-18 08:15:00,15.1,12.2,30.37,West,280,1.0,2.0,88,0.00,,,0.00,VWS V14.01,2013-01-18 13:15:00,
2013-01-18 08:20:00,15.4,12.2,30.37,West,260,1.0,2.0,87,0.00,,,0.00,VWS V14.01,2013-01-18 13:20:00,
2013-01-18 08:25:00,15.6,12.2,30.37,WSW,257,1.0,2.0,86,0.00,,,0.00,VWS V14.01,2013-01-18 13:25:00,
2013-01-18 08:30:00,15.9,12.5,30.37,WSW,257,2.0,4.0,86,0.00,,,0.00,VWS V14.01,2013-01-18 13:30:00,
2013-01-18 08:35:00,16.2,12.5,30.37,West,259,1.0,4.0,85,0.00,,,0.00,VWS V14.01,2013-01-18 13:35:00,
2013-01-18 08:41:00,16.3,12.6,30.37,West,271,1.0,4.0,85,0.00,,,0.00,VWS V14.01,2013-01-18 13:41:00,
2013-01-18 08:46:00,16.4,12.7,30.38,WSW,255,2.0,4.0,85,0.00,,OVC050,0.00,VWS V14.01,2013-01-18 13:46:00,
2013-01-18 08:51:00,16.6,12.6,30.38,West,270,3.0,6.0,84,0.00,,OVC050,0.00,VWS V14.01,2013-01-18 13:51:00,
2013-01-18 08:56:00,16.9,12.9,30.38,West,261,4.0,6.0,84,0.00,,OVC050,0.00,VWS V14.01,2013-01-18 13:56:00,
2013-01-18 09:00:00,19.3,12.7,30.41,West,266,2.0,6.0,75,0.00,,OVC,0.00,VWS V14.01,2013-01-18 14:00:00,
2013-01-18 09:01:00,17.1,12.8,30.39,West,280,3.0,6.0,83,0.00,,OVC050,0.00,VWS V14.01,2013-01-18 14:01:00,
2013-01-18 09:06:00,17.3,12.8,30.39,WSW,252,3.0,5.0,82,0.00,,OVC050,0.00,VWS V14.01,2013-01-18 14:06:00,
2013-01-18 09:11:00,17.4,12.9,30.39,West,271,2.0,5.0,82,0.00,,OVC050,0.00,VWS V14.01,2013-01-18 14:11:00,
2013-01-18 09:16:00,17.6,13.1,30.39,West,260,3.0,5.0,82,0.00,,OVC050,0.00,VWS V14.01,2013-01-18 14:16:00,
2013-01-18 09:22:00,17.8,13.0,30.39,WSW,257,3.0,7.0,81,0.00,,OVC050,0.00,VWS V14.01,2013-01-18 14:22:00,
2013-01-18 09:27:00,17.9,13.1,30.40,West,279,3.0,7.0,81,0.00,,OVC050,0.00,VWS V14.01,2013-01-18 14:27:00,
2013-01-18 09:30:00,20.3,12.1,30.41,NW,308,3.0,8.0,70,0.00,,OVC,0.00,VWS V14.01,2013-01-18 14:30:00,
2013-01-18 09:32:00,18.1,13.0,30.40,NW,316,2.0,7.0,80,0.00,,OVC050,0.00,VWS V14.01,2013-01-18 14:32:00,
2013-01-18 09:37:00,18.2,13.1,30.40,West,278,4.0,6.0,80,0.00,,OVC050,0.00,VWS V14.01,2013-01-18 14:37:00,
2013-01-18 09:42:00,18.3,12.9,30.40,West,260,4.0,6.0,79,0.00,,OVC050,0.00,VWS V14.01,2013-01-18 14:42:00,
2013-01-18 09:47:00,18.5,12.8,30.40,WNW,297,1.0,6.0,78,0.00,,OVC020,0.00,VWS V14.01,2013-01-18 14:47:00,
2013-01-18 09:53:00,18.8,12.8,30.40,West,264,2.0,6.0,77,0.00,,OVC020,0.00,VWS V14.01,2013-01-18 14:53:00,
2013-01-18 09:58:00,18.9,12.6,30.41,West,270,2.0,6.0,76,0.00,,OVC020,0.00,VWS V14.01,2013-01-18 14:58:00,
2013-01-18 10:00:00,20.8,8.0,30.41,WSW,257,2.0,9.0,57,0.00,,OVC,0.00,VWS V14.01,2013-01-18 15:00:00,
2013-01-18 10:03:00,19.3,12.7,30.41,WSW,258,2.0,3.0,75,0.00,,SCT018,0.00,VWS V14.01,2013-01-18 15:03:00,
2013-01-18 10:08:00,19.5,12.3,30.41,West,259,3.0,7.0,73,0.00,,SCT018,0.00,VWS V14.01,2013-01-18 15:08:00,
2013-01-18 10:13:00,19.7,12.1,30.41,WSW,258,3.0,8.0,72,0.00,,SCT018,0.00,VWS V14.01,2013-01-18 15:13:00,
2013-01-18 10:18:00,19.8,12.2,30.41,West,266,1.0,8.0,72,0.00,,SCT018,0.00,VWS V14.01,2013-01-18 15:18:00,
2013-01-18 10:23:00,20.0,12.1,30.41,West,264,1.0,8.0,71,0.00,,SCT018,0.00,VWS V14.01,2013-01-18 15:23:00,
2013-01-18 10:28:00,20.2,11.7,30.41,West,270,3.0,8.0,69,0.00,,SCT018,0.00,VWS V14.01,2013-01-18 15:28:00,
2013-01-18 10:30:00,21.1,7.1,30.39,WSW,255,4.0,10.0,54,0.00,,OVC,0.00,VWS V14.01,2013-01-18 15:30:00,
2013-01-18 10:34:00,20.4,11.9,30.41,West,262,4.0,7.0,69,0.00,,SCT018,0.00,VWS V14.01,2013-01-18 15:34:00,
2013-01-18 10:39:00,20.5,11.0,30.41,West,271,1.0,7.0,66,0.00,,SCT018,0.00,VWS V14.01,2013-01-18 15:39:00,
2013-01-18 10:44:00,20.8,11.2,30.41,WNW,300,2.0,7.0,66,0.00,,SCT018,0.00,VWS V14.01,2013-01-18 15:44:00,
2013-01-18 10:49:00,20.9,9.9,30.40,WSW,257,3.0,7.0,62,0.00,,CLR,0.00,VWS V14.01,2013-01-18 15:49:00,
2013-01-18 10:54:00,20.9,9.6,30.40,WSW,257,5.0,7.0,61,0.00,,CLR,0.00,VWS V14.01,2013-01-18 15:54:00,
2013-01-18 10:59:00,20.8,8.4,30.40,West,260,2.0,9.0,58,0.00,,CLR,0.00,VWS V14.01,2013-01-18 15:59:00,
2013-01-18 11:00:00,21.0,8.6,30.38,WSW,257,2.0,8.0,58,0.00,,OVC,0.00,VWS V14.01,2013-01-18 16:00:00,
2013-01-18 11:05:00,20.8,7.6,30.41,West,276,3.0,4.0,56,0.00,,CLR,0.00,VWS V14.01,2013-01-18 16:05:00,
2013-01-18 11:10:00,20.9,8.5,30.41,WNW,287,2.0,7.0,58,0.00,,CLR,0.00,VWS V14.01,2013-01-18 16:10:00,
2013-01-18 11:15:00,21.1,8.6,30.41,West,276,4.0,7.0,58,0.00,,CLR,0.00,VWS V14.01,2013-01-18 16:15:00,
2013-01-18 11:20:00,21.2,8.0,30.40,West,260,2.0,7.0,56,0.00,,CLR,0.00,VWS V14.01,2013-01-18 16:20:00,
2013-01-18 11:25:00,21.1,7.1,30.40,WSW,250,3.0,7.0,54,0.00,,CLR,0.00,VWS V14.01,2013-01-18 16:25:00,
2013-01-18 11:30:00,21.2,7.2,30.39,WSW,257,6.0,10.0,54,0.00,,CLR,0.00,VWS V14.01,2013-01-18 16:30:00,
2013-01-18 11:36:00,21.1,7.5,30.39,West,271,4.0,5.0,55,0.00,,CLR,0.00,VWS V14.01,2013-01-18 16:36:00,
2013-01-18 11:41:00,20.9,6.9,30.39,West,269,1.0,6.0,54,0.00,,CLR,0.00,VWS V14.01,2013-01-18 16:41:00,
2013-01-18 11:46:00,20.8,7.6,30.39,NW,311,3.0,6.0,56,0.00,,CLR,0.00,VWS V14.01,2013-01-18 16:46:00,
2013-01-18 11:51:00,20.8,7.6,30.39,WNW,300,7.0,7.0,56,0.00,,CLR,0.00,VWS V14.01,2013-01-18 16:51:00,
2013-01-18 11:56:00,20.9,7.7,30.38,West,263,5.0,7.0,56,0.00,,CLR,0.00,VWS V14.01,2013-01-18 16:56:00,
2013-01-18 12:00:00,21.5,9.8,30.38,West,263,1.0,11.0,60,0.00,,OVC,0.00,VWS V14.01,2013-01-18 17:00:00,
2013-01-18 12:02:00,21.0,8.6,30.39,West,280,2.0,8.0,58,0.00,,CLR,0.00,VWS V14.01,2013-01-18 17:02:00,
2013-01-18 12:07:00,21.3,9.2,30.39,West,267,3.0,3.0,59,0.00,,CLR,0.00,VWS V14.01,2013-01-18 17:07:00,
2013-01-18 12:12:00,21.5,9.4,30.39,West,274,6.0,6.0,59,0.00,,CLR,0.00,VWS V14.01,2013-01-18 17:12:00,
2013-01-18 12:17:00,21.5,9.0,30.39,WNW,288,3.0,7.0,58,0.00,,CLR,0.00,VWS V14.01,2013-01-18 17:17:00,
2013-01-18 12:22:00,21.7,9.2,30.39,West,266,2.0,7.0,58,0.00,,CLR,0.00,VWS V14.01,2013-01-18 17:22:00,
2013-01-18 12:27:00,21.9,9.8,30.38,West,262,6.0,7.0,59,0.00,,CLR,0.00,VWS V14.01,2013-01-18 17:27:00,
2013-01-18 12:30:00,22.5,11.5,30.38,SW,224,4.0,7.0,62,0.00,,OVC,0.00,VWS V14.01,2013-01-18 17:30:00,
2013-01-18 12:33:00,21.8,10.1,30.38,West,262,7.0,11.0,60,0.00,,CLR,0.00,VWS V14.01,2013-01-18 17:33:00,
2013-01-18 12:38:00,21.7,10.0,30.38,WSW,249,7.0,11.0,60,0.00,,CLR,0.00,VWS V14.01,2013-01-18 17:38:00,
2013-01-18 12:43:00,21.4,8.9,30.38,West,269,3.0,11.0,58,0.00,,CLR,0.00,VWS V14.01,2013-01-18 17:43:00,
2013-01-18 12:48:00,21.2,8.7,30.38,West,265,3.0,11.0,58,0.00,,CLR,0.00,VWS V14.01,2013-01-18 17:48:00,
2013-01-18 12:53:00,21.3,9.2,30.37,West,277,2.0,11.0,59,0.00,,CLR,0.00,VWS V14.01,2013-01-18 17:53:00,
2013-01-18 12:58:00,21.5,9.4,30.38,West,273,3.0,11.0,59,0.00,,CLR,0.00,VWS V14.01,2013-01-18 17:58:00,
2013-01-18 13:00:00,23.7,11.1,30.36,West,269,3.0,5.0,58,0.00,,OVC,0.00,VWS V14.01,2013-01-18 18:00:00,
2013-01-18 13:03:00,21.6,9.9,30.38,WSW,248,2.0,3.0,60,0.00,,CLR,0.00,VWS V14.01,2013-01-18 18:03:00,
2013-01-18 13:09:00,21.9,11.2,30.37,West,280,3.0,4.0,63,0.00,,CLR,0.00,VWS V14.01,2013-01-18 18:09:00,
2013-01-18 13:14:00,22.3,10.5,30.38,West,264,3.0,7.0,60,0.00,,CLR,0.00,VWS V14.01,2013-01-18 18:14:00,
2013-01-18 13:19:00,22.4,10.3,30.38,WNW,282,1.0,7.0,59,0.00,,CLR,0.00,VWS V14.01,2013-01-18 18:19:00,
2013-01-18 13:24:00,22.2,10.1,30.37,WSW,249,4.0,7.0,59,0.00,,CLR,0.00,VWS V14.01,2013-01-18 18:24:00,
2013-01-18 13:29:00,22.2,10.4,30.38,NW,304,1.0,7.0,60,0.00,,CLR,0.00,VWS V14.01,2013-01-18 18:29:00,
2013-01-18 13:30:00,23.0,11.6,30.35,West,280,2.0,9.0,61,0.00,,OVC,0.00,VWS V14.01,2013-01-18 18:30:00,
2013-01-18 13:34:00,22.6,11.6,30.38,WNW,285,1.0,4.0,62,0.00,,CLR,0.00,VWS V14.01,2013-01-18 18:34:00,
2013-01-18 13:39:00,22.4,10.6,30.37,West,263,3.0,4.0,60,0.00,,CLR,0.00,VWS V14.01,2013-01-18 18:39:00,
2013-01-18 13:45:00,22.5,11.1,30.37,West,277,1.0,5.0,61,0.00,,FEW045,0.00,VWS V14.01,2013-01-18 18:45:00,
2013-01-18 13:50:00,22.8,11.8,30.36,WSW,250,1.0,5.0,62,0.00,,FEW045,0.00,VWS V14.01,2013-01-18 18:50:00,
2013-01-18 13:55:00,23.3,11.5,30.36,WSW,249,1.0,5.0,60,0.00,,FEW045,0.00,VWS V14.01,2013-01-18 18:55:00,
2013-01-18 14:00:00,23.5,11.3,30.36,NW,316,1.0,5.0,59,0.00,,FEW045,0.00,VWS V14.01,2013-01-18 19:00:00,
2013-01-18 14:05:00,23.9,12.1,30.36,WSW,241,2.0,4.0,60,0.00,,FEW045,0.00,VWS V14.01,2013-01-18 19:05:00,
2013-01-18 14:10:00,23.4,11.2,30.36,West,262,4.0,9.0,59,0.00,,FEW045,0.00,VWS V14.01,2013-01-18 19:10:00,
2013-01-18 14:15:00,23.3,11.5,30.35,WSW,248,5.0,9.0,60,0.00,,FEW045,0.00,VWS V14.01,2013-01-18 19:15:00,
2013-01-18 14:21:00,22.9,11.5,30.36,West,259,4.0,9.0,61,0.00,,FEW045,0.00,VWS V14.01,2013-01-18 19:21:00,
2013-01-18 14:26:00,22.9,11.8,30.35,West,269,3.0,9.0,62,0.00,,FEW045,0.00,VWS V14.01,2013-01-18 19:26:00,
2013-01-18 14:30:00,23.7,12.6,30.33,West,277,4.0,8.0,62,0.00,,OVC,0.00,VWS V14.01,2013-01-18 19:30:00,
2013-01-18 14:31:00,22.9,11.5,30.35,West,259,2.0,9.0,61,0.00,,FEW045,0.00,VWS V14.01,2013-01-18 19:31:00,
2013-01-18 14:36:00,23.2,11.8,30.35,West,269,1.0,3.0,61,0.00,,FEW045,0.00,VWS V14.01,2013-01-18 19:36:00,
2013-01-18 14:41:00,23.4,11.6,30.34,WSW,250,1.0,3.0,60,0.00,,FEW045,0.00,VWS V14.01,2013-01-18 19:41:00,
2013-01-18 14:46:00,23.4,11.9,30.34,SW,233,4.0,4.0,61,0.00,,SCT042,0.00,VWS V14.01,2013-01-18 19:46:00,
2013-01-18 14:51:00,23.3,11.9,30.34,WSW,250,5.0,8.0,61,0.00,,SCT042,0.00,VWS V14.01,2013-01-18 19:51:00,
2013-01-18 14:57:00,23.1,12.0,30.34,SW,236,5.0,8.0,62,0.00,,SCT042,0.00,VWS V14.01,2013-01-18 19:57:00,
2013-01-18 15:00:00,24.1,12.2,30.32,WSW,250,3.0,9.0,60,0.00,,OVC,0.00,VWS V14.01,2013-01-18 20:00:00,
2013-01-18 15:02:00,23.2,12.5,30.34,West,267,3.0,8.0,63,0.00,,SCT042,0.00,VWS V14.01,2013-01-18 20:02:00,
2013-01-18 15:07:00,23.1,12.4,30.34,WSW,255,2.0,5.0,63,0.00,,SCT042,0.00,VWS V14.01,2013-01-18 20:07:00,
2013-01-18 15:12:00,23.2,12.5,30.34,WSW,242,4.0,5.0,63,0.00,,SCT042,0.00,VWS V14.01,2013-01-18 20:12:00,
2013-01-18 15:17:00,23.4,12.3,30.34,WSW,238,6.0,7.0,62,0.00,,SCT042,0.00,VWS V14.01,2013-01-18 20:17:00,
2013-01-18 15:22:00,23.5,12.8,30.33,SW,225,3.0,7.0,63,0.00,,SCT042,0.00,VWS V14.01,2013-01-18 20:22:00,
2013-01-18 15:28:00,23.6,12.5,30.33,WSW,255,6.0,8.0,62,0.00,,SCT042,0.00,VWS V14.01,2013-01-18 20:28:00,
2013-01-18 15:30:00,23.4,11.6,30.31,WSW,241,5.0,8.0,60,0.00,,OVC,0.00,VWS V14.01,2013-01-18 20:30:00,
2013-01-18 15:33:00,23.7,12.2,30.33,WSW,238,8.0,8.0,61,0.00,,SCT042,0.00,VWS V14.01,2013-01-18 20:33:00,
2013-01-18 15:38:00,23.8,12.3,30.33,WSW,255,3.0,8.0,61,0.00,,SCT042,0.00,VWS V14.01,2013-01-18 20:38:00,
2013-01-18 15:43:00,23.9,12.4,30.33,WSW,255,2.0,8.0,61,0.00,,SCT042,0.00,VWS V14.01,2013-01-18 20:43:00,
2013-01-18 15:48:00,24.0,12.1,30.32,WSW,245,3.0,8.0,60,0.00,,SCT042,0.00,VWS V14.01,2013-01-18 20:48:00,
2013-01-18 15:53:00,24.0,12.1,30.32,WSW,249,6.0,8.0,60,0.00,,SCT042,0.00,VWS V14.01,2013-01-18 20:53:00,
2013-01-18 15:58:00,24.0,12.1,30.32,SW,223,7.0,8.0,60,0.00,,SCT042,0.00,VWS V14.01,2013-01-18 20:58:00,
2013-01-18 16:00:00,23.6,12.1,30.29,SSW,212,1.0,8.0,61,0.00,,OVC,0.00,VWS V14.01,2013-01-18 21:00:00,
2013-01-18 16:04:00,24.1,12.2,30.31,WSW,250,5.0,5.0,60,0.00,,FEW038,0.00,VWS V14.01,2013-01-18 21:04:00,
2013-01-18 16:09:00,23.9,11.7,30.31,WSW,245,5.0,8.0,59,0.00,,FEW038,0.00,VWS V14.01,2013-01-18 21:09:00,
2013-01-18 16:14:00,23.8,11.6,30.31,SW,235,6.0,8.0,59,0.00,,FEW038,0.00,VWS V14.01,2013-01-18 21:14:00,
2013-01-18 16:19:00,23.6,11.4,30.31,WSW,252,4.0,8.0,59,0.00,,FEW038,0.00,VWS V14.01,2013-01-18 21:19:00,
2013-01-18 16:24:00,23.5,11.3,30.31,SW,232,5.0,8.0,59,0.00,,FEW038,0.00,VWS V14.01,2013-01-18 21:24:00,
2013-01-18 16:29:00,23.4,11.6,30.31,WSW,253,4.0,8.0,60,0.00,,FEW038,0.00,VWS V14.01,2013-01-18 21:29:00,
2013-01-18 16:30:00,23.7,12.6,30.28,SSW,203,2.0,4.0,62,0.00,,OVC,0.00,VWS V14.01,2013-01-18 21:30:00,
2013-01-18 16:34:00,23.4,11.2,30.31,WSW,255,5.0,8.0,59,0.00,,FEW038,0.00,VWS V14.01,2013-01-18 21:34:00,
2013-01-18 16:40:00,23.4,11.2,30.30,WSW,246,3.0,8.0,59,0.00,,FEW038,0.00,VWS V14.01,2013-01-18 21:40:00,
2013-01-18 16:45:00,23.4,11.6,30.31,WSW,239,4.0,8.0,60,0.00,,CLR,0.00,VWS V14.01,2013-01-18 21:45:00,
2013-01-18 16:50:00,23.5,11.7,30.30,SW,236,4.0,8.0,60,0.00,,CLR,0.00,VWS V14.01,2013-01-18 21:50:00,
2013-01-18 16:55:00,23.5,12.0,30.30,WSW,238,3.0,8.0,61,0.00,,CLR,0.00,VWS V14.01,2013-01-18 21:55:00,
2013-01-18 17:00:00,23.6,12.1,30.30,SW,230,3.0,8.0,61,0.00,,CLR,0.00,VWS V14.01,2013-01-18 22:00:00,
2013-01-18 17:05:00,23.5,12.8,30.29,WSW,255,1.0,2.0,63,0.00,,CLR,0.00,VWS V14.01,2013-01-18 22:05:00,
2013-01-18 17:10:00,23.5,12.4,30.29,WSW,239,3.0,3.0,62,0.00,,CLR,0.00,VWS V14.01,2013-01-18 22:10:00,
2013-01-18 17:16:00,23.6,12.1,30.29,WSW,245,3.0,4.0,61,0.00,,CLR,0.00,VWS V14.01,2013-01-18 22:16:00,
2013-01-18 17:21:00,23.6,11.8,30.29,SW,231,3.0,4.0,60,0.00,,CLR,0.00,VWS V14.01,2013-01-18 22:21:00,
2013-01-18 17:26:00,23.7,13.0,30.29,SW,228,4.0,4.0,63,0.00,,CLR,0.00,VWS V14.01,2013-01-18 22:26:00,
2013-01-18 17:30:00,24.4,12.1,30.26,SSW,208,2.0,6.0,59,0.00,,OVC,0.00,VWS V14.01,2013-01-18 22:30:00,
2013-01-18 17:31:00,23.7,12.6,30.28,SW,220,3.0,4.0,62,0.00,,CLR,0.00,VWS V14.01,2013-01-18 22:31:00,
2013-01-18 17:36:00,23.8,12.7,30.28,SSW,203,2.0,4.0,62,0.00,,CLR,0.00,VWS V14.01,2013-01-18 22:36:00,
2013-01-18 17:42:00,23.8,12.3,30.28,SSW,203,2.0,4.0,61,0.00,,CLR,0.00,VWS V14.01,2013-01-18 22:42:00,
2013-01-18 17:47:00,23.9,12.8,30.28,SW,222,2.0,4.0,62,0.00,,BKN110,0.00,VWS V14.01,2013-01-18 22:47:00,
2013-01-18 17:52:00,23.9,12.8,30.28,SW,225,2.0,4.0,62,0.00,,BKN110,0.00,VWS V14.01,2013-01-18 22:52:00,
2013-01-18 17:57:00,23.9,12.4,30.28,SW,214,3.0,4.0,61,0.00,,BKN110,0.00,VWS V14.01,2013-01-18 22:57:00,
2013-01-18 18:00:00,25.0,11.9,30.25,SW,226,4.0,8.0,57,0.00,,OVC,0.00,VWS V14.01,2013-01-18 23:00:00,
2013-01-18 18:02:00,23.9,12.4,30.27,SW,214,1.0,5.0,61,0.00,,BKN110,0.00,VWS V14.01,2013-01-18 23:02:00,
2013-01-18 18:07:00,23.9,12.4,30.28,SW,224,3.0,4.0,61,0.00,,BKN110,0.00,VWS V14.01,2013-01-18 23:07:00,
2013-01-18 18:12:00,24.0,12.1,30.27,SW,224,5.0,5.0,60,0.00,,BKN110,0.00,VWS V14.01,2013-01-18 23:12:00,
2013-01-18 18:18:00,24.1,11.9,30.27,SSW,210,4.0,6.0,59,0.00,,BKN110,0.00,VWS V14.01,2013-01-18 23:18:00,
2013-01-18 18:23:00,24.3,12.1,30.27,SSW,208,3.0,6.0,59,0.00,,BKN110,0.00,VWS V14.01,2013-01-18 23:23:00,
2013-01-18 18:28:00,24.4,12.1,30.27,SW,222,2.0,6.0,59,0.00,,BKN110,0.00,VWS V14.01,2013-01-18 23:28:00,
2013-01-18 18:30:00,24.8,12.1,30.24,SSW,212,4.0,9.0,58,0.00,,OVC,0.00,VWS V14.01,2013-01-18 23:30:00,
2013-01-18 18:33:00,24.4,12.1,30.26,SW,219,4.0,4.0,59,0.00,,BKN110,0.00,VWS V14.01,2013-01-18 23:33:00,
2013-01-18 18:38:00,24.5,12.2,30.26,SW,229,5.0,7.0,59,0.00,,BKN110,0.00,VWS V14.01,2013-01-18 23:38:00,
2013-01-18 18:43:00,24.6,11.9,30.26,SW,221,5.0,7.0,58,0.00,,BKN110,0.00,VWS V14.01,2013-01-18 23:43:00,
2013-01-18 18:49:00,24.8,12.1,30.26,SW,230,6.0,7.0,58,0.00,,OVC120,0.00,VWS V14.01,2013-01-18 23:49:00,
2013-01-18 18:54:00,24.9,12.2,30.25,SW,222,4.0,8.0,58,0.00,,OVC120,0.00,VWS V14.01,2013-01-18 23:54:00,
2013-01-18 18:59:00,24.9,11.8,30.25,SW,214,4.0,8.0,57,0.00,,OVC120,0.00,VWS V14.01,2013-01-18 23:59:00,
2013-01-18 19:00:00,25.2,13.6,30.23,SW,226,2.0,8.0,61,0.00,,OVC,0.00,VWS V14.01,2013-01-19 00:00:00,
2013-01-18 19:04:00,24.9,11.4,30.25,SW,226,4.0,7.0,56,0.00,,OVC120,0.00,VWS V14.01,2013-01-19 00:04:00,
2013-01-18 19:09:00,24.8,11.7,30.25,SW,220,5.0,7.0,57,0.00,,OVC120,0.00,VWS V14.01,2013-01-19 00:09:00,
2013-01-18 19:14:00,24.8,12.1,30.25,SW,216,4.0,9.0,58,0.00,,OVC060,0.00,VWS V14.01,2013-01-19 00:14:00,
2013-01-18 19:19:00,24.8,12.5,30.25,SW,214,3.0,9.0,59,0.00,,OVC060,0.00,VWS V14.01,2013-01-19 00:19:00,
2013-01-18 19:24:00,24.8,12.5,30.25,SSW,205,2.0,9.0,59,0.00,,OVC060,0.00,VWS V14.01,2013-01-19 00:24:00,
2013-01-18 19:30:00,24.7,12.4,30.24,WSW,238,2.0,9.0,59,0.00,,OVC060,0.00,VWS V14.01,2013-01-19 00:30:00,
2013-01-18 19:35:00,24.8,12.9,30.24,SSW,205,1.0,4.0,60,0.00,,OVC060,0.00,VWS V14.01,2013-01-19 00:35:00,
2013-01-18 19:40:00,24.9,12.2,30.24,SSW,198,2.0,8.0,58,0.00,,OVC060,0.00,VWS V14.01,2013-01-19 00:40:00,
2013-01-18 19:45:00,24.9,13.0,30.24,SSW,193,3.0,8.0,60,0.00,,OVC060,0.00,VWS V14.01,2013-01-19 00:45:00,
2013-01-18 19:50:00,25.1,12.8,30.24,SW,231,4.0,8.0,59,0.00,,OVC060,0.00,VWS V14.01,2013-01-19 00:50:00,
2013-01-18 19:55:00,25.1,12.8,30.23,SSW,199,1.0,8.0,59,0.00,,OVC060,0.00,VWS V14.01,2013-01-19 00:55:00,
2013-01-18 20:00:00,25.1,12.8,30.23,SW,228,1.0,8.0,59,0.00,,OVC060,0.00,VWS V14.01,2013-01-19 01:00:00,
2013-01-18 20:05:00,25.3,13.8,30.23,SW,230,2.0,2.0,61,0.00,,OVC060,0.00,VWS V14.01,2013-01-19 01:05:00,
2013-01-18 20:11:00,25.3,13.4,30.22,SSW,208,3.0,3.0,60,0.00,,OVC060,0.00,VWS V14.01,2013-01-19 01:11:00,
2013-01-18 20:16:00,25.3,13.4,30.22,SSW,207,3.0,4.0,60,0.00,,OVC060,0.00,VWS V14.01,2013-01-19 01:16:00,
2013-01-18 20:21:00,25.3,13.0,30.22,SSW,207,4.0,7.0,59,0.00,,OVC060,0.00,VWS V14.01,2013-01-19 01:21:00,
2013-01-18 20:26:00,25.0,12.7,30.21,SW,217,3.0,7.0,59,0.00,,OVC060,0.00,VWS V14.01,2013-01-19 01:26:00,
2013-01-18 20:30:00,25.3,14.1,30.15,SW,233,4.0,6.0,62,0.00,,OVC,0.00,VWS V14.01,2013-01-19 01:30:00,
2013-01-18 20:31:00,24.8,12.9,30.21,South,179,2.0,7.0,60,0.00,,OVC060,0.00,VWS V14.01,2013-01-19 01:31:00,
2013-01-18 20:36:00,24.8,12.9,30.20,SW,221,4.0,4.0,60,0.00,,OVC060,0.00,VWS V14.01,2013-01-19 01:36:00,
2013-01-18 20:41:00,24.8,12.9,30.19,SSW,203,2.0,6.0,60,0.00,,OVC060,0.00,VWS V14.01,2013-01-19 01:41:00,
2013-01-18 20:47:00,24.9,13.4,30.18,SSW,205,2.0,6.0,61,0.00,,OVC060,0.00,VWS V14.01,2013-01-19 01:47:00,
2013-01-18 20:52:00,24.8,13.3,30.18,SSE,158,2.0,6.0,61,0.00,,OVC060,0.00,VWS V14.01,2013-01-19 01:52:00,
2013-01-18 20:57:00,24.8,13.3,30.18,SW,215,4.0,6.0,61,0.00,,OVC060,0.00,VWS V14.01,2013-01-19 01:57:00,
2013-01-18 21:00:00,28.3,15.0,30.12,WSW,242,9.0,14.0,57,0.00,,OVC,0.00,VWS V14.01,2013-01-19 02:00:00,
2013-01-18 21:02:00,24.8,13.3,30.18,SSW,208,4.0,6.0,61,0.00,,OVC060,0.00,VWS V14.01,2013-01-19 02:02:00,
2013-01-18 21:07:00,24.8,13.6,30.17,SSW,195,4.0,6.0,62,0.00,,OVC060,0.00,VWS V14.01,2013-01-19 02:07:00,
2013-01-18 21:12:00,24.8,13.3,30.17,SSW,207,4.0,6.0,61,0.00,,OVC060,0.00,VWS V14.01,2013-01-19 02:12:00,
2013-01-18 21:17:00,24.7,13.6,30.16,SW,221,3.0,6.0,62,0.00,,OVC060,0.00,VWS V14.01,2013-01-19 02:17:00,
2013-01-18 21:22:00,24.8,14.0,30.16,SSW,205,3.0,6.0,63,0.00,,OVC060,0.00,VWS V14.01,2013-01-19 02:22:00,
2013-01-18 21:27:00,24.9,14.5,30.15,SSW,200,2.0,6.0,64,0.00,,OVC060,0.00,VWS V14.01,2013-01-19 02:27:00,
2013-01-18 21:30:00,29.1,15.4,30.10,West,260,6.0,17.0,56,0.00,,OVC,0.00,VWS V14.01,2013-01-19 02:30:00,
2013-01-18 21:33:00,25.3,14.1,30.15,SW,230,4.0,4.0,62,0.00,,OVC060,0.00,VWS V14.01,2013-01-19 02:33:00,
2013-01-18 21:38:00,26.0,14.8,30.14,SW,231,6.0,8.0,62,0.00,,OVC060,0.00,VWS V14.01,2013-01-19 02:38:00,
2013-01-18 21:43:00,26.7,13.9,30.14,SW,224,6.0,9.0,58,0.00,,OVC060,0.00,VWS V14.01,2013-01-19 02:43:00,
2013-01-18 21:48:00,27.2,14.8,30.13,SW,225,7.0,12.0,59,0.00,,BKN100,0.00,VWS V14.01,2013-01-19 02:48:00,
2013-01-18 21:53:00,27.5,14.7,30.13,WSW,239,13.0,14.0,58,0.00,,BKN100,0.00,VWS V14.01,2013-01-19 02:53:00,
2013-01-18 21:58:00,28.1,14.8,30.12,WSW,250,8.0,14.0,57,0.00,,BKN100,0.00,VWS V14.01,2013-01-19 02:58:00,
2013-01-18 22:00:00,30.1,15.9,30.08,WSW,238,10.0,15.0,55,0.00,,OVC,0.00,VWS V14.01,2013-01-19 03:00:00,
2013-01-18 22:03:00,28.4,15.1,30.12,WSW,250,10.0,12.0,57,0.00,,BKN100,0.00,VWS V14.01,2013-01-19 03:03:00,
2013-01-18 22:08:00,28.6,14.5,30.11,WSW,255,10.0,17.0,55,0.00,,BKN100,0.00,VWS V14.01,2013-01-19 03:08:00,
2013-01-18 22:14:00,28.7,14.6,30.11,WSW,238,8.0,17.0,55,0.00,,BKN100,0.00,VWS V14.01,2013-01-19 03:14:00,
2013-01-18 22:19:00,28.7,15.0,30.11,WSW,256,6.0,17.0,56,0.00,,BKN100,0.00,VWS V14.01,2013-01-19 03:19:00,
2013-01-18 22:24:00,28.9,14.8,30.10,SW,233,13.0,17.0,55,0.00,,BKN100,0.00,VWS V14.01,2013-01-19 03:24:00,
2013-01-18 22:29:00,29.0,15.3,30.10,WSW,241,10.0,17.0,56,0.00,,BKN100,0.00,VWS V14.01,2013-01-19 03:29:00,
2013-01-18 22:30:00,31.2,17.3,30.07,WSW,239,11.0,15.0,56,0.00,,OVC,0.00,VWS V14.01,2013-01-19 03:30:00,
2013-01-18 22:34:00,29.1,15.4,30.10,WSW,241,9.0,15.0,56,0.00,,BKN100,0.00,VWS V14.01,2013-01-19 03:34:00,
2013-01-18 22:39:00,29.3,16.0,30.10,SW,236,12.0,15.0,57,0.00,,BKN100,0.00,VWS V14.01,2013-01-19 03:39:00,
2013-01-18 22:45:00,29.4,15.7,30.09,West,271,11.0,15.0,56,0.00,,OVC100,0.00,VWS V14.01,2013-01-19 03:45:00,
2013-01-18 22:50:00,29.7,15.5,30.09,WSW,255,9.0,15.0,55,0.00,,OVC100,0.00,VWS V14.01,2013-01-19 03:50:00,
2013-01-18 22:55:00,29.8,15.6,30.09,WSW,248,11.0,15.0,55,0.00,,OVC100,0.00,VWS V14.01,2013-01-19 03:55:00,
2013-01-18 23:00:00,30.0,15.4,30.08,WSW,239,9.0,15.0,54,0.00,,OVC100,0.00,VWS V14.01,2013-01-19 04:00:00,
2013-01-18 23:05:00,30.2,15.6,30.08,SW,232,9.0,12.0,54,0.00,,OVC100,0.00,VWS V14.01,2013-01-19 04:05:00,
2013-01-18 23:10:00,30.4,16.2,30.07,WSW,252,8.0,13.0,55,0.00,,OVC100,0.00,VWS V14.01,2013-01-19 04:10:00,
2013-01-18 23:15:00,30.7,16.5,30.07,WSW,255,6.0,14.0,55,0.00,,OVC100,0.00,VWS V14.01,2013-01-19 04:15:00,
2013-01-18 23:20:00,30.8,16.5,30.08,West,260,7.0,14.0,55,0.00,,OVC100,0.00,VWS V14.01,2013-01-19 04:20:00,
2013-01-18 23:25:00,31.0,16.3,30.07,West,260,6.0,15.0,54,0.00,,OVC100,0.00,VWS V14.01,2013-01-19 04:25:00,
2013-01-18 23:30:00,31.2,16.5,30.08,WSW,238,7.0,15.0,54,0.00,,OVC100,0.00,VWS V14.01,2013-01-19 04:30:00,
2013-01-18 23:35:00,31.3,17.0,30.07,West,274,5.0,11.0,55,0.00,,OVC100,0.00,VWS V14.01,2013-01-19 04:35:00,
2013-01-18 23:41:00,31.6,16.9,30.07,WSW,249,10.0,12.0,54,0.00,,OVC100,0.00,VWS V14.01,2013-01-19 04:41:00,
2013-01-18 23:46:00,31.9,17.2,30.07,SW,231,7.0,13.0,54,0.00,,OVC100,0.00,VWS V14.01,2013-01-19 04:46:00,
2013-01-18 23:51:00,32.1,16.5,30.07,West,264,10.0,14.0,52,0.00,,OVC100,0.00,VWS V14.01,2013-01-19 04:51:00,
2013-01-18 23:56:00,32.2,17.4,30.07,West,266,9.0,14.0,54,0.00,,OVC100,0.00,VWS V14.01,2013-01-19 04:56:00,